Time;durP1;ratioP1;P1;durP2;ratioP2;P2;SDS_P1;SDS_P2;PMS_P1;PMS_P2;Temp;Humidity;BMP_temperature;BMP_pressure;BME280_temperature;BME280_humidity;BME280_pressure;Samples;Min_cycle;Max_cycle;Signal;HPM_P1;HPM_P2
2023/01/21 00:01:54;;;;;;;48.03;25.55;;;-0.70;99.90;;;;;;5064775;28;20237;-75
2023/01/21 00:04:21;;;;;;;48.20;29.83;;;-0.70;99.90;;;;;;5063337;28;20249;-76
2023/01/21 00:06:49;;;;;;;41.53;24.75;;;-0.70;99.90;;;;;;5061646;28;20241;-75
2023/01/21 00:09:19;;;;;;;48.22;26.58;;;-0.70;99.90;;;;;;5065073;28;20202;-75
2023/01/21 00:11:48;;;;;;;48.05;30.15;;;-0.70;99.90;;;;;;5063750;28;20790;-75
2023/01/21 00:14:15;;;;;;;46.67;25.90;;;-0.70;99.90;;;;;;5063572;28;20229;-75
2023/01/21 00:16:41;;;;;;;49.33;26.35;;;-0.70;99.90;;;;;;5061566;28;20230;-75
2023/01/21 00:19:08;;;;;;;52.53;28.38;;;-0.70;99.90;;;;;;5062951;28;20318;-75
2023/01/21 00:21:35;;;;;;;45.47;24.73;;;-0.70;99.90;;;;;;5065986;28;20659;-76
2023/01/21 00:24:04;;;;;;;43.70;27.20;;;-0.70;99.90;;;;;;5062544;28;20232;-75
2023/01/21 00:26:31;;;;;;;49.47;26.30;;;-0.70;99.90;;;;;;5063551;28;20290;-75
2023/01/21 00:28:58;;;;;;;40.80;25.40;;;-0.70;99.90;;;;;;5062416;28;20245;-75
2023/01/21 00:31:25;;;;;;;44.80;26.75;;;-0.70;99.90;;;;;;5068519;28;20291;-75
2023/01/21 00:33:55;;;;;;;46.22;23.98;;;-0.70;99.90;;;;;;5071234;28;20210;-75
2023/01/21 00:36:23;;;;;;;55.58;27.67;;;-0.70;99.90;;;;;;5062303;28;20216;-76
2023/01/21 00:38:50;;;;;;;46.05;27.58;;;-0.70;99.90;;;;;;5060843;28;20206;-76
2023/01/21 00:41:19;;;;;;;43.85;25.30;;;-0.70;99.90;;;;;;5061009;28;20360;-75
2023/01/21 00:43:46;;;;;;;41.97;25.48;;;-0.70;99.90;;;;;;5059780;28;20230;-75
2023/01/21 00:46:13;;;;;;;46.50;24.67;;;-0.70;99.90;;;;;;5061283;28;20509;-75
2023/01/21 00:48:40;;;;;;;48.20;27.20;;;-0.70;99.90;;;;;;5063655;28;20230;-75
2023/01/21 00:51:07;;;;;;;50.13;26.90;;;-0.70;99.90;;;;;;5061921;28;20249;-75
2023/01/21 00:53:36;;;;;;;44.28;27.92;;;-0.70;99.90;;;;;;5061921;28;20275;-75
2023/01/21 00:56:06;;;;;;;40.53;24.73;;;-0.70;99.90;;;;;;5062456;28;20507;-75
2023/01/21 00:58:38;;;;;;;51.35;25.58;;;-0.70;99.90;;;;;;5057580;28;20723;-75
2023/01/21 01:01:06;;;;;;;44.63;24.17;;;-0.70;99.90;;;;;;5061817;28;20257;-75
2023/01/21 01:03:34;;;;;;;43.47;26.52;;;-0.70;99.90;;;;;;5063770;28;20743;-76
2023/01/21 01:06:05;;;;;;;51.50;25.58;;;-0.70;99.90;;;;;;5060546;28;20238;-76
2023/01/21 01:08:33;;;;;;;40.70;23.23;;;-0.70;99.90;;;;;;5062226;28;20315;-75
2023/01/21 01:11:01;;;;;;;42.00;24.20;;;-0.70;99.90;;;;;;5062640;28;20677;-76
2023/01/21 01:13:29;;;;;;;47.15;26.08;;;-0.70;99.90;;;;;;5060402;28;20799;-75
2023/01/21 01:15:58;;;;;;;41.10;22.95;;;-0.70;99.90;;;;;;5063202;28;20230;-75
2023/01/21 01:18:27;;;;;;;46.28;23.58;;;-0.70;99.90;;;;;;5065777;28;20213;-75
2023/01/21 01:20:59;;;;;;;33.05;19.30;;;-0.80;99.90;;;;;;5059686;28;20236;-74
2023/01/21 01:23:26;;;;;;;44.95;26.45;;;-0.80;99.90;;;;;;5060005;28;20213;-74
2023/01/21 01:25:57;;;;;;;43.38;23.60;;;-0.80;99.90;;;;;;5058114;28;20834;-74
2023/01/21 01:28:24;;;;;;;44.63;24.73;;;-0.80;99.90;;;;;;5074699;28;20290;-74
2023/01/21 01:30:51;;;;;;;43.47;24.05;;;-0.80;99.90;;;;;;5060749;28;20237;-74
2023/01/21 01:33:20;;;;;;;45.70;25.13;;;-0.70;99.90;;;;;;5060693;28;20237;-75
2023/01/21 01:35:49;;;;;;;49.97;25.55;;;-0.80;99.90;;;;;;5060968;28;20259;-74
2023/01/21 01:38:18;;;;;;;37.03;23.77;;;-0.80;99.90;;;;;;5058828;28;20398;-74
2023/01/21 01:43:48;;;;;;;40.58;23.98;;;-0.80;99.90;;;;;;5067756;28;20206;-75
2023/01/21 01:46:17;;;;;;;43.45;25.35;;;-0.80;99.90;;;;;;5062699;28;20238;-74
2023/01/21 01:48:49;;;;;;;40.33;24.42;;;-0.80;99.90;;;;;;5058129;28;20214;-74
2023/01/21 01:51:21;;;;;;;42.17;24.73;;;-0.80;99.90;;;;;;5062902;28;20295;-75
2023/01/21 01:53:51;;;;;;;48.75;22.27;;;-0.80;99.90;;;;;;5061343;28;20216;-74
2023/01/21 01:56:18;;;;;;;38.55;20.92;;;-0.80;99.90;;;;;;5062608;28;20287;-74
2023/01/21 01:58:46;;;;;;;37.70;22.80;;;-0.80;99.90;;;;;;5059463;28;20591;-74
2023/01/21 02:01:13;;;;;;;38.92;22.83;;;-0.80;99.90;;;;;;5061540;28;20711;-74
2023/01/21 02:03:43;;;;;;;42.42;23.88;;;-0.80;99.90;;;;;;5058709;28;20707;-74
2023/01/21 02:06:12;;;;;;;38.97;24.10;;;-0.80;99.90;;;;;;5060790;28;20202;-75
2023/01/21 02:08:42;;;;;;;48.30;23.42;;;-0.80;99.90;;;;;;5058395;28;20202;-75
2023/01/21 02:11:12;;;;;;;34.55;21.40;;;-0.90;99.90;;;;;;5059973;28;20230;-74
2023/01/21 02:13:45;;;;;;;40.22;22.70;;;-0.80;99.90;;;;;;5056308;28;20230;-75
2023/01/21 02:16:49;;;;;;;40.03;22.27;;;-0.80;99.90;;;;;;5062758;28;20237;-75
2023/01/21 02:20:03;;;;;;;45.28;23.27;;;-0.80;99.90;;;;;;5055424;28;20814;-75
2023/01/21 02:22:37;;;;;;;33.40;21.42;;;-0.80;99.90;;;;;;5060830;28;20242;-74
2023/01/21 02:25:56;;;;;;;41.80;21.02;;;-0.80;99.90;;;;;;5062714;28;20319;-75
2023/01/21 02:29:02;;;;;;;41.25;20.95;;;-0.80;99.90;;;;;;5013544;28;20233;-74
2023/01/21 02:31:58;;;;;;;40.25;22.48;;;-0.80;99.90;;;;;;4953860;28;20725;-74
2023/01/21 02:34:35;;;;;;;39.00;20.90;;;-0.80;99.90;;;;;;5058144;28;20241;-75
2023/01/21 02:37:10;;;;;;;40.08;20.38;;;-0.80;99.90;;;;;;5056083;28;20564;-75
2023/01/21 02:40:00;;;;;;;39.47;21.38;;;-0.70;99.90;;;;;;5056047;28;20257;-75
2023/01/21 02:42:33;;;;;;;39.50;20.90;;;-0.80;99.90;;;;;;5060121;28;20210;-75
2023/01/21 02:45:09;;;;;;;38.00;19.70;;;-0.80;99.90;;;;;;5062369;28;20860;-75
2023/01/21 02:47:43;;;;;;;43.30;22.17;;;-0.80;99.90;;;;;;5059142;28;20233;-75
2023/01/21 02:50:17;;;;;;;49.40;22.88;;;-0.80;99.90;;;;;;5062117;28;20295;-75
2023/01/21 02:52:46;;;;;;;39.75;20.40;;;-0.80;99.90;;;;;;5060496;28;20244;-75
2023/01/21 02:55:16;;;;;;;38.50;19.55;;;-0.80;99.90;;;;;;5062432;28;20212;-74
2023/01/21 02:57:46;;;;;;;41.80;23.23;;;-0.80;99.90;;;;;;5058097;28;20570;-74
2023/01/21 03:00:21;;;;;;;43.80;23.40;;;-0.80;99.90;;;;;;5061848;28;20252;-75
2023/01/21 03:03:24;;;;;;;44.42;22.27;;;-0.70;99.90;;;;;;5058494;28;20209;-74
2023/01/21 03:06:26;;;;;;;36.20;20.33;;;-0.70;99.90;;;;;;5059157;28;20234;-75
2023/01/21 03:08:58;;;;;;;39.80;20.67;;;-0.80;99.90;;;;;;5058886;28;20267;-74
2023/01/21 03:11:26;;;;;;;42.90;20.70;;;-0.80;99.90;;;;;;5060182;28;20238;-75
2023/01/21 03:16:58;;;;;;;32.53;18.23;;;-0.80;99.90;;;;;;5054799;28;20200;-74
2023/01/21 03:19:37;;;;;;;35.08;19.85;;;-0.80;99.90;;;;;;5061061;28;20250;-76
2023/01/21 03:22:09;;;;;;;38.17;21.02;;;-0.80;99.90;;;;;;5062686;28;20236;-74
2023/01/21 03:24:38;;;;;;;32.78;19.27;;;-0.80;99.90;;;;;;5064183;28;20226;-75
2023/01/21 03:27:08;;;;;;;36.08;19.30;;;-0.80;99.90;;;;;;5065255;28;20209;-74
2023/01/21 03:29:37;;;;;;;31.02;17.52;;;-0.80;99.90;;;;;;5064009;28;20624;-74
2023/01/21 03:32:08;;;;;;;31.10;19.58;;;-0.80;99.90;;;;;;5063952;28;20846;-74
2023/01/21 03:34:40;;;;;;;28.48;20.27;;;-0.80;99.90;;;;;;5061062;28;20206;-75
2023/01/21 03:37:13;;;;;;;36.30;19.05;;;-0.90;99.90;;;;;;5064772;28;20221;-75
2023/01/21 03:39:50;;;;;;;32.85;18.83;;;-0.90;99.90;;;;;;5062952;28;20283;-75
2023/01/21 03:42:17;;;;;;;35.20;18.33;;;-0.90;99.90;;;;;;5065886;28;20275;-74
2023/01/21 03:44:45;;;;;;;34.30;18.48;;;-0.90;99.90;;;;;;5063730;28;20206;-75
2023/01/21 03:47:19;;;;;;;32.85;17.42;;;-0.90;99.90;;;;;;5065626;28;20855;-74
2023/01/21 03:49:50;;;;;;;37.13;20.85;;;-0.90;99.90;;;;;;5063763;28;20296;-75
2023/01/21 03:52:21;;;;;;;35.88;20.80;;;-0.90;99.90;;;;;;5065424;28;20246;-75
2023/01/21 03:54:48;;;;;;;34.90;18.88;;;-0.90;99.90;;;;;;5061373;28;20391;-74
2023/01/21 03:57:15;;;;;;;29.23;15.63;;;-0.90;99.90;;;;;;5064028;28;20538;-74
2023/01/21 03:59:42;;;;;;;32.83;16.52;;;-0.90;99.90;;;;;;5064776;28;20642;-74
2023/01/21 04:02:09;;;;;;;33.25;18.23;;;-0.90;99.90;;;;;;5062402;28;20699;-75
2023/01/21 04:04:37;;;;;;;28.98;17.70;;;-0.90;99.90;;;;;;5061059;28;20600;-74
2023/01/21 04:07:04;;;;;;;33.53;17.85;;;-0.90;99.90;;;;;;5065843;28;20202;-75
2023/01/21 04:09:32;;;;;;;34.40;18.92;;;-0.90;99.90;;;;;;5067150;28;20229;-74
2023/01/21 04:11:59;;;;;;;29.05;16.73;;;-0.90;99.90;;;;;;5062010;28;20437;-74
2023/01/21 04:14:26;;;;;;;37.38;19.50;;;-0.90;99.90;;;;;;5062924;28;20206;-74
2023/01/21 04:17:00;;;;;;;35.65;18.67;;;-0.90;99.90;;;;;;5060584;28;20522;-74
2023/01/21 04:19:28;;;;;;;33.05;18.77;;;-0.90;99.90;;;;;;5062595;28;20212;-74
2023/01/21 04:21:55;;;;;;;35.33;19.10;;;-0.90;99.90;;;;;;5057052;28;20252;-74
2023/01/21 04:24:22;;;;;;;30.63;17.67;;;-0.90;99.90;;;;;;5063246;28;20238;-74
2023/01/21 04:26:52;;;;;;;31.85;18.42;;;-0.90;99.90;;;;;;5057450;28;20268;-74
2023/01/21 04:29:20;;;;;;;31.55;16.48;;;-0.90;99.90;;;;;;5064524;28;20246;-75
2023/01/21 04:31:47;;;;;;;33.30;16.73;;;-0.90;99.90;;;;;;5059110;28;20194;-75
2023/01/21 04:34:15;;;;;;;29.80;17.88;;;-0.90;99.90;;;;;;5062113;28;20216;-75
2023/01/21 04:36:42;;;;;;;34.85;17.05;;;-0.90;99.90;;;;;;5061027;28;20294;-75
2023/01/21 04:39:21;;;;;;;37.90;18.75;;;-0.90;99.90;;;;;;5064613;28;20315;-75
2023/01/21 04:41:48;;;;;;;30.65;17.13;;;-0.90;99.90;;;;;;5061625;28;20232;-74
2023/01/21 04:44:21;;;;;;;32.58;18.20;;;-0.90;99.90;;;;;;5062254;28;20279;-75
2023/01/21 04:46:48;;;;;;;24.42;17.05;;;-0.90;99.90;;;;;;5062367;28;20216;-74
2023/01/21 04:49:15;;;;;;;24.17;15.13;;;-0.90;99.90;;;;;;5060434;28;20298;-74
2023/01/21 04:51:42;;;;;;;29.52;17.92;;;-0.90;99.90;;;;;;5061765;28;20238;-74
2023/01/21 04:54:13;;;;;;;33.25;16.70;;;-0.90;99.90;;;;;;5064470;28;20245;-74
2023/01/21 04:56:42;;;;;;;27.23;15.65;;;-0.90;99.90;;;;;;5070475;28;20388;-75
2023/01/21 04:59:10;;;;;;;24.08;13.30;;;-1.00;99.90;;;;;;5057836;28;20214;-75
2023/01/21 05:01:38;;;;;;;20.15;13.35;;;-1.00;99.90;;;;;;5060567;28;20318;-74
2023/01/21 05:04:08;;;;;;;19.77;13.48;;;-1.00;99.90;;;;;;5062530;28;20241;-74
2023/01/21 05:06:37;;;;;;;24.73;14.57;;;-1.00;99.90;;;;;;5061498;28;20631;-75
2023/01/21 05:09:04;;;;;;;25.63;15.40;;;-1.00;99.90;;;;;;5062359;28;20700;-74
2023/01/21 05:11:31;;;;;;;22.63;13.18;;;-1.00;99.90;;;;;;5061526;28;20681;-74
2023/01/21 05:13:58;;;;;;;24.55;13.60;;;-1.00;99.90;;;;;;5057820;28;20287;-74
2023/01/21 05:16:28;;;;;;;20.17;12.80;;;-1.00;99.90;;;;;;5062678;28;20229;-74
2023/01/21 05:18:56;;;;;;;21.85;12.63;;;-1.00;99.90;;;;;;5056989;28;20206;-74
2023/01/21 05:21:23;;;;;;;23.80;13.20;;;-1.10;99.90;;;;;;5061547;28;20307;-74
2023/01/21 05:23:50;;;;;;;17.10;10.30;;;-1.10;99.90;;;;;;5059115;28;20238;-74
2023/01/21 05:26:18;;;;;;;17.65;11.18;;;-1.10;99.90;;;;;;5063230;28;20233;-75
2023/01/21 05:28:45;;;;;;;23.67;13.95;;;-1.10;99.90;;;;;;5059078;28;20198;-74
2023/01/21 05:31:15;;;;;;;20.85;12.30;;;-1.10;99.90;;;;;;5057850;28;20279;-74
2023/01/21 05:33:45;;;;;;;19.95;13.20;;;-1.10;99.90;;;;;;5054141;28;20645;-74
2023/01/21 05:36:14;;;;;;;21.83;10.70;;;-1.10;99.90;;;;;;5072603;28;20288;-74
2023/01/21 05:38:41;;;;;;;22.90;11.25;;;-1.10;99.90;;;;;;5060984;28;20242;-74
2023/01/21 05:41:08;;;;;;;20.35;12.40;;;-1.10;99.90;;;;;;5060914;28;20283;-75
2023/01/21 05:43:37;;;;;;;22.77;12.15;;;-1.10;99.90;;;;;;5061838;28;20510;-74
2023/01/21 05:46:06;;;;;;;22.73;13.07;;;-1.20;99.90;;;;;;5058105;28;20617;-75
2023/01/21 05:48:36;;;;;;;22.95;12.88;;;-1.20;99.90;;;;;;5067242;28;20755;-74
2023/01/21 05:51:03;;;;;;;24.00;13.05;;;-1.20;99.90;;;;;;5049070;28;20226;-74
2023/01/21 05:53:31;;;;;;;21.15;12.70;;;-1.20;99.90;;;;;;5064696;28;20229;-74
2023/01/21 05:55:58;;;;;;;19.63;13.20;;;-1.20;99.90;;;;;;5057149;28;20237;-75
2023/01/21 05:58:28;;;;;;;22.58;11.63;;;-1.20;99.90;;;;;;5060118;28;20503;-75
2023/01/21 06:00:57;;;;;;;18.35;11.73;;;-1.20;99.90;;;;;;5057813;28;20229;-75
2023/01/21 06:03:27;;;;;;;25.23;11.82;;;-1.20;99.90;;;;;;5052731;28;20233;-74
2023/01/21 06:05:57;;;;;;;27.50;13.57;;;-1.30;99.90;;;;;;5058773;28;20601;-75
2023/01/21 06:08:24;;;;;;;19.90;12.45;;;-1.30;99.90;;;;;;5061383;28;20201;-75
2023/01/21 06:10:53;;;;;;;25.80;12.57;;;-1.30;99.90;;;;;;5056922;28;20271;-75
2023/01/21 06:13:23;;;;;;;29.73;14.98;;;-1.20;99.90;;;;;;5059849;28;20209;-75
2023/01/21 06:15:52;;;;;;;25.45;15.07;;;-1.20;99.90;;;;;;5062288;28;20234;-75
2023/01/21 06:18:24;;;;;;;27.02;16.95;;;-1.30;99.90;;;;;;5059274;28;20279;-75
2023/01/21 06:20:51;;;;;;;31.55;15.55;;;-1.20;99.90;;;;;;5058287;28;20268;-75
2023/01/21 06:23:18;;;;;;;27.85;14.43;;;-1.20;99.90;;;;;;5054727;28;20303;-75
2023/01/21 06:25:47;;;;;;;23.25;13.70;;;-1.20;99.90;;;;;;5055277;28;20269;-75
2023/01/21 06:28:15;;;;;;;25.45;14.90;;;-1.20;99.90;;;;;;5053233;28;20633;-75
2023/01/21 06:30:42;;;;;;;27.98;16.15;;;-1.20;99.90;;;;;;5053015;28;20682;-75
2023/01/21 06:33:09;;;;;;;21.70;11.02;;;-1.30;99.90;;;;;;5059424;28;20233;-75
2023/01/21 06:35:36;;;;;;;25.52;14.15;;;-1.30;99.90;;;;;;5060424;28;20210;-75
2023/01/21 06:38:03;;;;;;;26.48;14.55;;;-1.20;99.90;;;;;;5054831;28;20214;-75
2023/01/21 06:40:30;;;;;;;22.95;15.63;;;-1.20;99.90;;;;;;5057964;28;20226;-74
2023/01/21 06:42:57;;;;;;;23.00;15.30;;;-1.20;99.90;;;;;;5060009;28;20271;-74
2023/01/21 06:45:26;;;;;;;22.92;14.20;;;-1.20;99.90;;;;;;5056456;28;20275;-75
2023/01/21 06:47:53;;;;;;;27.63;15.25;;;-1.20;99.90;;;;;;5058897;28;20237;-75
2023/01/21 06:50:19;;;;;;;32.42;17.10;;;-1.20;99.90;;;;;;5060794;28;20234;-75
2023/01/21 06:52:48;;;;;;;23.08;14.25;;;-1.20;99.90;;;;;;5055304;28;20629;-74
2023/01/21 06:55:16;;;;;;;20.48;13.68;;;-1.20;99.90;;;;;;5058901;28;20614;-75
2023/01/21 07:00:27;;;;;;;29.55;17.75;;;-1.20;99.90;;;;;;5053466;28;20622;-74
2023/01/21 07:02:56;;;;;;;24.95;15.25;;;-1.20;99.90;;;;;;5062212;28;20316;-74
2023/01/21 07:05:23;;;;;;;25.52;13.98;;;-1.20;99.90;;;;;;5061172;28;20205;-75
2023/01/21 07:07:55;;;;;;;23.52;15.25;;;-1.20;99.90;;;;;;5064699;28;20230;-74
2023/01/21 07:10:23;;;;;;;22.38;13.98;;;-1.20;99.90;;;;;;5065642;28;20209;-74
2023/01/21 07:12:50;;;;;;;34.33;18.25;;;-1.20;99.90;;;;;;5065169;28;20516;-74
2023/01/21 07:15:17;;;;;;;26.85;14.55;;;-1.10;99.90;;;;;;5064433;28;20713;-74
2023/01/21 07:17:45;;;;;;;29.77;16.15;;;-1.10;99.90;;;;;;5056718;28;20567;-74
2023/01/21 07:20:12;;;;;;;31.85;15.27;;;-1.10;99.90;;;;;;5060478;28;20582;-73
2023/01/21 07:22:39;;;;;;;22.73;13.50;;;-1.10;99.90;;;;;;5060738;28;20558;-73
2023/01/21 07:25:10;;;;;;;26.60;15.40;;;-1.10;99.90;;;;;;5065137;28;20685;-73
2023/01/21 07:27:39;;;;;;;25.90;17.02;;;-1.10;99.90;;;;;;5060778;28;20213;-73
2023/01/21 07:30:08;;;;;;;26.05;15.00;;;-1.10;99.90;;;;;;5061708;28;20557;-73
2023/01/21 07:32:34;;;;;;;20.40;13.60;;;-1.10;99.90;;;;;;5061740;28;20233;-73
2023/01/21 07:35:05;;;;;;;24.10;13.10;;;-1.10;99.90;;;;;;5061543;28;20256;-73
2023/01/21 07:37:32;;;;;;;21.05;13.70;;;-1.10;99.90;;;;;;5059140;28;20218;-73
2023/01/21 07:39:59;;;;;;;21.98;11.57;;;-1.10;99.90;;;;;;5070963;28;20241;-72
2023/01/21 07:42:28;;;;;;;27.00;13.50;;;-1.10;99.90;;;;;;5061904;28;20837;-72
2023/01/21 07:44:56;;;;;;;21.45;13.43;;;-1.10;99.90;;;;;;5056573;28;20494;-73
2023/01/21 07:47:22;;;;;;;21.73;12.35;;;-1.10;99.90;;;;;;5063803;28;20212;-73
2023/01/21 07:49:50;;;;;;;25.17;14.40;;;-1.10;99.90;;;;;;5062499;28;20683;-73
2023/01/21 07:52:18;;;;;;;17.73;10.43;;;-1.10;99.90;;;;;;5064461;28;20323;-73
2023/01/21 07:54:49;;;;;;;21.98;11.32;;;-1.10;99.90;;;;;;5059261;28;20635;-73
2023/01/21 07:57:16;;;;;;;18.52;11.05;;;-1.10;99.90;;;;;;5060807;28;20229;-73
2023/01/21 07:59:44;;;;;;;16.85;11.05;;;-1.00;99.90;;;;;;5059345;28;20654;-73
2023/01/21 08:02:12;;;;;;;20.10;12.38;;;-1.00;99.90;;;;;;5064283;28;20626;-73
2023/01/21 08:04:41;;;;;;;16.08;11.85;;;-0.90;99.90;;;;;;5063198;28;20308;-73
2023/01/21 08:07:08;;;;;;;18.65;11.48;;;-0.90;99.90;;;;;;5056438;28;20293;-73
2023/01/21 08:09:39;;;;;;;20.95;13.55;;;-0.90;99.90;;;;;;5059562;28;20206;-73
2023/01/21 08:12:10;;;;;;;21.83;12.60;;;-0.90;99.90;;;;;;5063689;28;20213;-73
2023/01/21 08:14:38;;;;;;;18.40;11.30;;;-0.90;99.90;;;;;;5065296;28;20312;-73
2023/01/21 08:17:05;;;;;;;22.15;11.95;;;-0.90;99.90;;;;;;5059653;28;20695;-73
2023/01/21 08:19:32;;;;;;;17.48;11.93;;;-0.90;99.90;;;;;;5060545;28;20600;-74
2023/01/21 08:21:59;;;;;;;22.58;14.60;;;-0.90;99.90;;;;;;5055781;28;20274;-73
2023/01/21 08:24:26;;;;;;;24.70;13.68;;;-0.80;99.90;;;;;;5056240;28;20345;-73
2023/01/21 08:26:57;;;;;;;21.05;11.63;;;-0.90;99.90;;;;;;5058595;28;20213;-74
2023/01/21 08:29:32;;;;;;;19.48;12.30;;;-0.90;99.90;;;;;;5051941;28;20617;-74
2023/01/21 08:31:59;;;;;;;15.77;11.73;;;-0.80;99.90;;;;;;5065836;28;20298;-73
2023/01/21 08:34:26;;;;;;;19.23;11.65;;;-0.80;99.90;;;;;;5056848;28;20287;-74
2023/01/21 08:36:53;;;;;;;19.58;10.65;;;-0.80;99.90;;;;;;5057670;28;20230;-74
2023/01/21 08:39:23;;;;;;;18.88;11.75;;;-0.70;99.90;;;;;;5059232;28;20703;-74
2023/01/21 08:41:50;;;;;;;19.02;12.70;;;-0.80;99.90;;;;;;5049334;28;20665;-73
2023/01/21 08:44:18;;;;;;;17.88;11.50;;;-0.80;99.90;;;;;;5062811;28;20303;-74
2023/01/21 08:46:45;;;;;;;23.77;12.95;;;-0.80;99.90;;;;;;5062080;28;20241;-73
2023/01/21 08:49:12;;;;;;;20.67;10.80;;;-0.70;99.90;;;;;;5060230;28;21124;-74
2023/01/21 08:51:40;;;;;;;19.02;11.05;;;-0.80;99.90;;;;;;5059918;28;20708;-74
2023/01/21 08:54:07;;;;;;;19.05;10.30;;;-0.80;99.90;;;;;;5056934;28;20661;-73
2023/01/21 08:56:34;;;;;;;24.77;14.18;;;-0.80;99.90;;;;;;5059649;28;20236;-74
2023/01/21 08:59:02;;;;;;;20.15;10.93;;;-0.70;99.90;;;;;;5059199;28;20295;-74
2023/01/21 09:01:35;;;;;;;17.20;10.48;;;-0.70;99.90;;;;;;5056731;28;20635;-74
2023/01/21 09:04:02;;;;;;;16.42;10.43;;;-0.70;99.90;;;;;;5061200;28;20198;-74
2023/01/21 09:06:32;;;;;;;16.75;10.50;;;-0.60;99.90;;;;;;5055312;28;20302;-74
2023/01/21 09:08:58;;;;;;;20.83;9.15;;;-0.70;99.90;;;;;;5058624;28;20216;-74
2023/01/21 09:11:26;;;;;;;20.23;10.80;;;-0.70;99.90;;;;;;5059532;28;20467;-74
2023/01/21 09:13:54;;;;;;;17.15;11.43;;;-0.70;99.90;;;;;;5061048;28;20727;-74
2023/01/21 09:16:25;;;;;;;16.20;9.10;;;-0.70;99.90;;;;;;5061547;28;20220;-74
2023/01/21 09:18:53;;;;;;;16.38;11.23;;;-0.60;99.90;;;;;;5062383;28;20271;-74
2023/01/21 09:21:22;;;;;;;16.00;11.10;;;-0.60;99.90;;;;;;5058234;28;20237;-74
2023/01/21 09:23:49;;;;;;;15.35;10.13;;;-0.60;99.90;;;;;;5056065;28;20256;-74
2023/01/21 09:26:25;;;;;;;15.15;11.10;;;-0.60;99.90;;;;;;5063656;28;20770;-74
2023/01/21 09:28:54;;;;;;;14.65;9.85;;;-0.60;99.90;;;;;;5059523;28;20736;-74
2023/01/21 09:31:24;;;;;;;24.83;14.45;;;-0.50;99.90;;;;;;5059859;28;20631;-74
2023/01/21 09:33:57;;;;;;;26.73;12.40;;;-0.40;99.90;;;;;;5051252;28;20297;-74
2023/01/21 09:36:27;;;;;;;25.52;14.40;;;-0.30;99.90;;;;;;5061233;28;20241;-74
2023/01/21 09:38:57;;;;;;;19.25;10.63;;;-0.30;99.90;;;;;;5056809;28;20734;-74
2023/01/21 09:41:27;;;;;;;24.60;15.30;;;-0.10;99.90;;;;;;5054966;28;20413;-74
2023/01/21 09:44:05;;;;;;;14.23;9.85;;;-0.10;99.90;;;;;;5055538;28;20537;-74
2023/01/21 09:46:39;;;;;;;13.95;8.60;;;0.10;99.90;;;;;;5060472;28;20621;-74
2023/01/21 09:49:19;;;;;;;14.68;10.07;;;0.20;99.90;;;;;;5053820;28;20198;-74
2023/01/21 09:51:50;;;;;;;15.17;10.07;;;0.40;99.90;;;;;;5057609;28;20527;-74
2023/01/21 09:54:24;;;;;;;14.82;10.85;;;0.40;99.90;;;;;;5055268;28;20522;-74
2023/01/21 09:57:34;;;;;;;14.85;9.27;;;0.30;99.90;;;;;;5056131;28;20572;-74
2023/01/21 10:00:18;;;;;;;14.80;10.32;;;0.30;99.90;;;;;;5058342;28;20198;-74
2023/01/21 10:02:53;;;;;;;14.25;9.52;;;0.40;99.90;;;;;;5062385;28;20712;-73
2023/01/21 10:05:44;;;;;;;10.90;8.07;;;0.50;99.90;;;;;;5051928;28;20214;-74
2023/01/21 10:08:22;;;;;;;14.13;8.27;;;0.60;99.90;;;;;;5049815;28;20559;-73
2023/01/21 10:10:54;;;;;;;16.75;8.73;;;0.60;99.90;;;;;;5058569;28;20963;-73
2023/01/21 10:13:33;;;;;;;7.95;6.32;;;0.50;99.90;;;;;;5059937;28;20272;-74
2023/01/21 10:16:07;;;;;;;13.00;8.60;;;0.60;99.90;;;;;;5053888;28;20642;-74
2023/01/21 10:18:38;;;;;;;11.13;7.07;;;0.40;99.90;;;;;;5056332;28;20500;-74
2023/01/21 10:21:16;;;;;;;16.43;8.60;;;0.40;99.90;;;;;;5058399;28;20234;-74
2023/01/21 10:23:47;;;;;;;9.73;7.63;;;0.60;99.90;;;;;;5060081;28;20515;-74
2023/01/21 10:26:17;;;;;;;11.03;6.73;;;0.50;99.90;;;;;;5061870;28;21188;-74
2023/01/21 10:28:48;;;;;;;11.07;7.40;;;0.50;99.90;;;;;;5054211;28;20503;-74
2023/01/21 10:31:21;;;;;;;9.60;7.00;;;0.40;99.90;;;;;;5054311;28;20227;-74
2023/01/21 10:33:48;;;;;;;10.17;8.47;;;0.30;99.90;;;;;;5058013;28;20541;-73
2023/01/21 10:36:52;;;;;;;10.83;7.33;;;0.40;99.90;;;;;;5060258;28;20487;-73
2023/01/21 10:39:28;;;;;;;9.83;7.20;;;0.30;99.90;;;;;;5051147;28;20568;-73
2023/01/21 10:42:05;;;;;;;10.63;6.20;;;0.20;99.90;;;;;;5059699;28;20483;-74
2023/01/21 10:44:38;;;;;;;10.52;7.03;;;0.20;99.90;;;;;;5047926;28;21163;-74
2023/01/21 10:47:17;;;;;;;11.00;6.80;;;0.20;99.90;;;;;;5048042;28;20252;-74
2023/01/21 10:50:01;;;;;;;13.67;8.50;;;0.40;99.90;;;;;;5052343;28;20515;-75
2023/01/21 10:52:46;;;;;;;10.03;6.90;;;0.70;99.90;;;;;;5051459;28;20553;-75
2023/01/21 10:55:25;;;;;;;16.10;8.52;;;0.80;99.90;;;;;;5049232;28;20468;-75
2023/01/21 10:57:58;;;;;;;11.43;7.88;;;1.10;99.90;;;;;;5051706;28;20669;-75
2023/01/21 11:00:31;;;;;;;8.35;6.75;;;1.00;99.90;;;;;;5062899;28;20250;-75
2023/01/21 11:03:02;;;;;;;8.60;6.30;;;0.80;99.90;;;;;;5053006;28;20230;-75
2023/01/21 11:05:33;;;;;;;10.52;6.57;;;0.90;99.90;;;;;;5053717;28;20642;-75
2023/01/21 11:08:03;;;;;;;12.93;8.57;;;0.90;99.90;;;;;;5054189;28;20238;-75
2023/01/21 11:10:30;;;;;;;10.98;6.65;;;0.80;99.90;;;;;;5051214;28;20767;-76
2023/01/21 11:12:58;;;;;;;9.07;7.27;;;0.70;99.90;;;;;;5051854;28;20231;-76
2023/01/21 11:15:27;;;;;;;11.35;6.55;;;0.70;99.90;;;;;;5050907;28;20504;-76
2023/01/21 11:17:55;;;;;;;10.43;7.13;;;0.70;99.90;;;;;;5058151;28;20209;-73
2023/01/21 11:20:30;;;;;;;12.27;7.18;;;0.70;99.90;;;;;;5055093;28;20213;-75
2023/01/21 11:22:59;;;;;;;11.77;6.43;;;0.60;99.90;;;;;;5060434;28;20553;-75
2023/01/21 11:25:41;;;;;;;11.52;6.57;;;0.60;99.90;;;;;;5059542;28;20302;-76
2023/01/21 11:28:23;;;;;;;8.50;6.03;;;0.50;99.90;;;;;;5061311;28;20539;-76
2023/01/21 11:30:53;;;;;;;13.50;6.70;;;0.40;99.90;;;;;;5049088;28;20464;-76
2023/01/21 11:33:25;;;;;;;11.45;8.90;;;0.30;99.90;;;;;;5047780;28;20272;-76
2023/01/21 11:35:57;;;;;;;12.60;6.83;;;0.30;99.90;;;;;;5050664;28;20855;-76
2023/01/21 11:38:31;;;;;;;11.25;6.72;;;0.30;99.90;;;;;;5065666;28;20482;-76
2023/01/21 11:41:13;;;;;;;10.65;6.90;;;0.30;99.90;;;;;;5070990;28;20224;-76
2023/01/21 11:43:42;;;;;;;11.15;7.57;;;0.40;99.90;;;;;;5062318;28;20412;-76
2023/01/21 11:46:35;;;;;;;16.52;7.97;;;0.30;99.90;;;;;;5047681;28;20215;-76
2023/01/21 11:49:24;;;;;;;10.60;7.50;;;0.30;99.90;;;;;;5034082;28;20230;-76
2023/01/21 11:51:51;;;;;;;9.48;6.95;;;0.20;99.90;;;;;;5037760;28;20336;-76
2023/01/21 11:54:21;;;;;;;12.93;7.60;;;0.10;99.90;;;;;;5049444;28;20633;-76
2023/01/21 11:56:58;;;;;;;12.70;9.73;;;0.20;99.90;;;;;;5055626;28;20474;-76
2023/01/21 11:59:32;;;;;;;12.55;7.70;;;0.20;99.90;;;;;;5062237;28;20292;-76
2023/01/21 12:02:08;;;;;;;14.20;8.43;;;0.30;99.90;;;;;;5058652;28;20201;-76
2023/01/21 12:04:36;;;;;;;10.53;7.47;;;0.30;99.90;;;;;;5055448;28;20483;-76
2023/01/21 12:07:07;;;;;;;11.00;7.23;;;0.40;99.90;;;;;;5064554;28;20492;-76
2023/01/21 12:09:37;;;;;;;12.53;7.53;;;0.60;99.90;;;;;;5050660;28;20559;-75
2023/01/21 12:12:34;;;;;;;8.60;7.05;;;0.60;99.90;;;;;;5052408;28;22142;-76
2023/01/21 12:15:19;;;;;;;12.02;6.45;;;0.80;99.90;;;;;;5054242;28;20293;-76
2023/01/21 12:17:58;;;;;;;8.97;6.20;;;0.90;99.90;;;;;;5066722;28;20206;-76
2023/01/21 12:20:35;;;;;;;9.57;7.30;;;0.70;99.90;;;;;;5066843;28;20467;-76
2023/01/21 12:23:25;;;;;;;8.73;7.00;;;0.60;99.90;;;;;;5055962;28;21189;-76
2023/01/21 12:25:58;;;;;;;11.13;7.13;;;0.50;99.90;;;;;;5052428;28;20589;-75
2023/01/21 12:28:47;;;;;;;13.60;6.57;;;0.40;99.90;;;;;;5069060;28;20469;-76
2023/01/21 12:31:23;;;;;;;10.45;8.02;;;0.30;99.90;;;;;;5060036;28;20495;-76
2023/01/21 12:33:55;;;;;;;14.40;7.43;;;0.20;99.90;;;;;;5065727;28;20285;-75
2023/01/21 12:36:29;;;;;;;9.88;6.75;;;0.10;99.90;;;;;;5066476;28;20460;-76
2023/01/21 12:39:18;;;;;;;9.45;6.75;;;0.10;99.90;;;;;;5067960;28;20234;-76
2023/01/21 12:41:56;;;;;;;19.58;7.38;;;0.00;99.90;;;;;;5064468;28;20690;-76
2023/01/21 12:44:35;;;;;;;8.73;6.32;;;0.00;99.90;;;;;;5049612;28;20318;-76
2023/01/21 12:47:11;;;;;;;9.80;7.03;;;0.00;99.90;;;;;;5059406;28;20214;-76
2023/01/21 12:50:15;;;;;;;12.30;8.30;;;-0.10;99.90;;;;;;5062135;28;20229;-76
2023/01/21 12:52:52;;;;;;;16.48;8.18;;;-0.30;99.90;;;;;;5066392;28;20267;-76
2023/01/21 12:55:25;;;;;;;10.38;6.85;;;-0.40;99.90;;;;;;5055898;28;20229;-74
2023/01/21 12:58:04;;;;;;;11.00;7.10;;;-0.50;99.90;;;;;;5060070;28;20234;-75
2023/01/21 13:00:40;;;;;;;12.55;7.68;;;-0.40;99.90;;;;;;5066806;28;20235;-76
2023/01/21 13:03:20;;;;;;;9.98;7.60;;;-0.50;99.90;;;;;;5059807;28;20615;-76
2023/01/21 13:05:54;;;;;;;13.85;7.07;;;-0.50;99.90;;;;;;5059223;28;20206;-73